sensor_id;sensor_type;location;lat;lon;timestamp;temperature;humidity
28546;DHT22;15749;49.606;8.738;2022-09-30T00:05:04;16.00;79.40
28546;DHT22;15749;49.606;8.738;2022-09-30T00:07:52;16.00;79.60
28546;DHT22;15749;49.606;8.738;2022-09-30T00:10:39;16.00;79.40
28546;DHT22;15749;49.606;8.738;2022-09-30T00:13:27;16.00;79.40
28546;DHT22;15749;49.606;8.738;2022-09-30T00:16:15;16.00;79.80
28546;DHT22;15749;49.606;8.738;2022-09-30T00:19:04;16.00;79.90
28546;DHT22;15749;49.606;8.738;2022-09-30T00:21:53;15.90;79.60
28546;DHT22;15749;49.606;8.738;2022-09-30T00:24:40;15.90;79.10
28546;DHT22;15749;49.606;8.738;2022-09-30T00:27:30;15.90;79.60
28546;DHT22;15749;49.606;8.738;2022-09-30T00:30:36;15.90;79.90
28546;DHT22;15749;49.606;8.738;2022-09-30T00:33:24;15.90;79.90
28546;DHT22;15749;49.606;8.738;2022-09-30T00:36:11;15.90;79.90
28546;DHT22;15749;49.606;8.738;2022-09-30T00:39:00;15.90;79.90
28546;DHT22;15749;49.606;8.738;2022-09-30T00:41:50;15.90;80.00
28546;DHT22;15749;49.606;8.738;2022-09-30T00:44:51;15.90;80.00
28546;DHT22;15749;49.606;8.738;2022-09-30T00:48:04;15.90;80.10
28546;DHT22;15749;49.606;8.738;2022-09-30T00:50:54;15.90;80.00
28546;DHT22;15749;49.606;8.738;2022-09-30T00:53:47;15.90;79.90
28546;DHT22;15749;49.606;8.738;2022-09-30T00:56:41;15.90;80.10
28546;DHT22;15749;49.606;8.738;2022-09-30T00:59:35;15.90;80.50
28546;DHT22;15749;49.606;8.738;2022-09-30T01:03:03;15.90;80.40
28546;DHT22;15749;49.606;8.738;2022-09-30T01:05:57;15.90;80.70
28546;DHT22;15749;49.606;8.738;2022-09-30T01:08:44;15.90;80.50
28546;DHT22;15749;49.606;8.738;2022-09-30T01:15:06;15.90;80.90
28546;DHT22;15749;49.606;8.738;2022-09-30T01:18:00;15.90;80.80
28546;DHT22;15749;49.606;8.738;2022-09-30T01:24:46;15.90;80.70
28546;DHT22;15749;49.606;8.738;2022-09-30T01:28:12;15.90;81.10
28546;DHT22;15749;49.606;8.738;2022-09-30T01:31:20;15.90;81.30
28546;DHT22;15749;49.606;8.738;2022-09-30T01:34:28;15.90;81.20
28546;DHT22;15749;49.606;8.738;2022-09-30T01:38:05;15.90;80.80
28546;DHT22;15749;49.606;8.738;2022-09-30T01:41:04;15.90;80.50
28546;DHT22;15749;49.606;8.738;2022-09-30T01:44:00;15.90;80.70
28546;DHT22;15749;49.606;8.738;2022-09-30T01:47:00;15.90;80.90
28546;DHT22;15749;49.606;8.738;2022-09-30T01:50:11;15.90;80.50
28546;DHT22;15749;49.606;8.738;2022-09-30T01:53:44;15.90;80.40
28546;DHT22;15749;49.606;8.738;2022-09-30T01:57:18;15.80;80.30
28546;DHT22;15749;49.606;8.738;2022-09-30T02:00:35;15.80;80.30
28546;DHT22;15749;49.606;8.738;2022-09-30T02:03:32;15.80;80.90
28546;DHT22;15749;49.606;8.738;2022-09-30T02:06:24;15.80;81.10
28546;DHT22;15749;49.606;8.738;2022-09-30T02:09:18;15.80;81.10
28546;DHT22;15749;49.606;8.738;2022-09-30T02:12:13;15.80;81.00
28546;DHT22;15749;49.606;8.738;2022-09-30T02:15:07;15.80;81.20
28546;DHT22;15749;49.606;8.738;2022-09-30T02:17:58;15.80;81.20
28546;DHT22;15749;49.606;8.738;2022-09-30T02:20:54;15.80;81.20
28546;DHT22;15749;49.606;8.738;2022-09-30T02:23:46;15.70;81.30
28546;DHT22;15749;49.606;8.738;2022-09-30T02:26:37;15.70;81.20
28546;DHT22;15749;49.606;8.738;2022-09-30T02:29:29;15.70;81.00
28546;DHT22;15749;49.606;8.738;2022-09-30T02:32:22;15.80;80.90
28546;DHT22;15749;49.606;8.738;2022-09-30T02:35:22;15.70;81.00
28546;DHT22;15749;49.606;8.738;2022-09-30T02:38:22;15.70;81.30
28546;DHT22;15749;49.606;8.738;2022-09-30T02:41:22;15.80;81.50
28546;DHT22;15749;49.606;8.738;2022-09-30T02:44:26;15.70;81.30
28546;DHT22;15749;49.606;8.738;2022-09-30T02:47:21;15.70;81.20
28546;DHT22;15749;49.606;8.738;2022-09-30T02:50:17;15.70;81.10
28546;DHT22;15749;49.606;8.738;2022-09-30T02:53:18;15.80;81.60
28546;DHT22;15749;49.606;8.738;2022-09-30T02:56:16;15.80;82.00
28546;DHT22;15749;49.606;8.738;2022-09-30T02:59:08;15.80;81.60
28546;DHT22;15749;49.606;8.738;2022-09-30T03:01:56;15.80;81.50
28546;DHT22;15749;49.606;8.738;2022-09-30T03:04:45;15.80;81.50
28546;DHT22;15749;49.606;8.738;2022-09-30T03:07:50;15.80;81.50
28546;DHT22;15749;49.606;8.738;2022-09-30T03:10:49;15.80;81.70
28546;DHT22;15749;49.606;8.738;2022-09-30T03:14:10;15.80;81.70
28546;DHT22;15749;49.606;8.738;2022-09-30T03:17:33;15.80;81.90
28546;DHT22;15749;49.606;8.738;2022-09-30T03:20:36;15.80;82.00
28546;DHT22;15749;49.606;8.738;2022-09-30T03:23:43;15.90;82.30
28546;DHT22;15749;49.606;8.738;2022-09-30T03:26:49;15.90;82.20
28546;DHT22;15749;49.606;8.738;2022-09-30T03:29:46;15.90;82.30
28546;DHT22;15749;49.606;8.738;2022-09-30T03:32:51;15.90;81.70
28546;DHT22;15749;49.606;8.738;2022-09-30T03:35:50;15.80;81.70
28546;DHT22;15749;49.606;8.738;2022-09-30T03:38:48;15.80;81.60
28546;DHT22;15749;49.606;8.738;2022-09-30T03:41:40;15.80;81.30
28546;DHT22;15749;49.606;8.738;2022-09-30T03:44:33;15.80;81.30
28546;DHT22;15749;49.606;8.738;2022-09-30T03:47:24;15.80;81.30
28546;DHT22;15749;49.606;8.738;2022-09-30T03:50:15;15.80;81.30
28546;DHT22;15749;49.606;8.738;2022-09-30T03:53:08;15.80;81.50
28546;DHT22;15749;49.606;8.738;2022-09-30T03:55:57;15.70;81.70
28546;DHT22;15749;49.606;8.738;2022-09-30T03:58:46;15.80;81.80
28546;DHT22;15749;49.606;8.738;2022-09-30T04:01:38;15.80;81.90
28546;DHT22;15749;49.606;8.738;2022-09-30T04:04:35;15.80;82.00
28546;DHT22;15749;49.606;8.738;2022-09-30T04:07:26;15.80;81.90
28546;DHT22;15749;49.606;8.738;2022-09-30T04:10:42;15.80;81.90
28546;DHT22;15749;49.606;8.738;2022-09-30T04:13:52;15.80;82.10
28546;DHT22;15749;49.606;8.738;2022-09-30T04:16:41;15.80;82.20
28546;DHT22;15749;49.606;8.738;2022-09-30T04:19:29;15.80;82.10
28546;DHT22;15749;49.606;8.738;2022-09-30T04:22:17;15.80;82.30
28546;DHT22;15749;49.606;8.738;2022-09-30T04:25:10;15.80;82.40
28546;DHT22;15749;49.606;8.738;2022-09-30T04:27:58;15.80;82.40
28546;DHT22;15749;49.606;8.738;2022-09-30T04:30:47;15.80;82.40
28546;DHT22;15749;49.606;8.738;2022-09-30T04:33:43;15.80;82.70
28546;DHT22;15749;49.606;8.738;2022-09-30T04:36:31;15.80;83.00
28546;DHT22;15749;49.606;8.738;2022-09-30T04:39:18;15.80;82.70
28546;DHT22;15749;49.606;8.738;2022-09-30T04:42:05;15.80;82.70
28546;DHT22;15749;49.606;8.738;2022-09-30T04:44:53;15.80;82.50
28546;DHT22;15749;49.606;8.738;2022-09-30T04:47:44;15.80;82.50
28546;DHT22;15749;49.606;8.738;2022-09-30T04:50:33;15.80;82.70
28546;DHT22;15749;49.606;8.738;2022-09-30T04:53:20;15.80;82.40
28546;DHT22;15749;49.606;8.738;2022-09-30T04:56:07;15.80;82.20
28546;DHT22;15749;49.606;8.738;2022-09-30T04:58:55;15.80;82.10
28546;DHT22;15749;49.606;8.738;2022-09-30T05:01:46;15.80;82.00
28546;DHT22;15749;49.606;8.738;2022-09-30T05:05:14;15.80;82.20
28546;DHT22;15749;49.606;8.738;2022-09-30T05:08:38;15.80;82.10
28546;DHT22;15749;49.606;8.738;2022-09-30T05:11:31;15.80;82.00
28546;DHT22;15749;49.606;8.738;2022-09-30T05:14:19;15.80;82.10
28546;DHT22;15749;49.606;8.738;2022-09-30T05:17:06;15.80;82.00
28546;DHT22;15749;49.606;8.738;2022-09-30T05:19:53;15.80;82.50
28546;DHT22;15749;49.606;8.738;2022-09-30T05:22:42;15.80;81.60
28546;DHT22;15749;49.606;8.738;2022-09-30T05:25:30;15.80;81.90
28546;DHT22;15749;49.606;8.738;2022-09-30T05:28:17;15.70;81.70
28546;DHT22;15749;49.606;8.738;2022-09-30T05:31:05;15.70;81.50
28546;DHT22;15749;49.606;8.738;2022-09-30T05:33:53;15.70;81.40
28546;DHT22;15749;49.606;8.738;2022-09-30T05:36:43;15.70;81.50
28546;DHT22;15749;49.606;8.738;2022-09-30T05:39:32;15.70;81.70
28546;DHT22;15749;49.606;8.738;2022-09-30T05:42:19;15.70;81.50
28546;DHT22;15749;49.606;8.738;2022-09-30T05:45:07;15.70;81.30
28546;DHT22;15749;49.606;8.738;2022-09-30T05:47:55;15.70;81.50
28546;DHT22;15749;49.606;8.738;2022-09-30T05:50:42;15.70;81.30
28546;DHT22;15749;49.606;8.738;2022-09-30T05:53:37;15.70;81.20
28546;DHT22;15749;49.606;8.738;2022-09-30T05:56:27;15.60;81.30
28546;DHT22;15749;49.606;8.738;2022-09-30T05:59:15;15.60;81.00
28546;DHT22;15749;49.606;8.738;2022-09-30T06:02:03;15.60;81.00
28546;DHT22;15749;49.606;8.738;2022-09-30T06:04:32;15.60;81.30
28546;DHT22;15749;49.606;8.738;2022-09-30T06:07:01;15.60;81.60
28546;DHT22;15749;49.606;8.738;2022-09-30T06:09:36;15.60;81.90
28546;DHT22;15749;49.606;8.738;2022-09-30T06:12:15;15.60;81.90
28546;DHT22;15749;49.606;8.738;2022-09-30T06:15:20;15.60;82.20
28546;DHT22;15749;49.606;8.738;2022-09-30T06:17:51;15.60;82.50
28546;DHT22;15749;49.606;8.738;2022-09-30T06:20:21;15.60;82.20
28546;DHT22;15749;49.606;8.738;2022-09-30T06:22:50;15.60;82.00
28546;DHT22;15749;49.606;8.738;2022-09-30T06:25:19;15.60;81.60
28546;DHT22;15749;49.606;8.738;2022-09-30T06:27:50;15.60;81.60
28546;DHT22;15749;49.606;8.738;2022-09-30T06:30:19;15.60;81.90
28546;DHT22;15749;49.606;8.738;2022-09-30T06:32:48;15.60;82.30
28546;DHT22;15749;49.606;8.738;2022-09-30T06:35:18;15.60;82.20
28546;DHT22;15749;49.606;8.738;2022-09-30T06:37:49;15.60;82.40
28546;DHT22;15749;49.606;8.738;2022-09-30T06:40:19;15.70;82.50
28546;DHT22;15749;49.606;8.738;2022-09-30T06:42:50;15.70;82.50
28546;DHT22;15749;49.606;8.738;2022-09-30T06:45:19;15.70;82.20
28546;DHT22;15749;49.606;8.738;2022-09-30T06:47:59;15.70;82.30
28546;DHT22;15749;49.606;8.738;2022-09-30T06:50:29;15.70;82.40
28546;DHT22;15749;49.606;8.738;2022-09-30T06:53:00;15.80;82.50
28546;DHT22;15749;49.606;8.738;2022-09-30T06:55:34;15.80;82.70
28546;DHT22;15749;49.606;8.738;2022-09-30T06:58:13;15.80;82.70
28546;DHT22;15749;49.606;8.738;2022-09-30T07:00:43;15.90;82.70
28546;DHT22;15749;49.606;8.738;2022-09-30T07:03:22;15.90;82.60
28546;DHT22;15749;49.606;8.738;2022-09-30T07:05:57;15.90;82.90
28546;DHT22;15749;49.606;8.738;2022-09-30T07:08:28;16.00;82.80
28546;DHT22;15749;49.606;8.738;2022-09-30T07:10:58;16.00;82.90
28546;DHT22;15749;49.606;8.738;2022-09-30T07:13:29;16.10;83.10
28546;DHT22;15749;49.606;8.738;2022-09-30T07:15:59;16.10;82.90
28546;DHT22;15749;49.606;8.738;2022-09-30T07:18:30;16.20;82.90
28546;DHT22;15749;49.606;8.738;2022-09-30T07:20:59;16.20;83.10
28546;DHT22;15749;49.606;8.738;2022-09-30T07:23:28;16.30;83.20
28546;DHT22;15749;49.606;8.738;2022-09-30T07:26:00;16.30;83.10
28546;DHT22;15749;49.606;8.738;2022-09-30T07:28:35;16.40;83.30
28546;DHT22;15749;49.606;8.738;2022-09-30T07:31:07;16.40;83.30
28546;DHT22;15749;49.606;8.738;2022-09-30T07:33:58;16.50;83.50
28546;DHT22;15749;49.606;8.738;2022-09-30T07:36:27;16.60;83.30
28546;DHT22;15749;49.606;8.738;2022-09-30T07:39:02;16.70;83.50
28546;DHT22;15749;49.606;8.738;2022-09-30T07:41:35;16.70;83.50
28546;DHT22;15749;49.606;8.738;2022-09-30T07:44:09;16.80;83.60
28546;DHT22;15749;49.606;8.738;2022-09-30T07:46:42;16.80;83.50
28546;DHT22;15749;49.606;8.738;2022-09-30T07:49:14;16.90;83.70
28546;DHT22;15749;49.606;8.738;2022-09-30T07:51:53;17.00;83.60
28546;DHT22;15749;49.606;8.738;2022-09-30T07:54:25;17.10;83.70
28546;DHT22;15749;49.606;8.738;2022-09-30T07:56:57;17.20;83.90
28546;DHT22;15749;49.606;8.738;2022-09-30T07:59:43;17.30;84.60
28546;DHT22;15749;49.606;8.738;2022-09-30T08:02:15;17.40;83.90
28546;DHT22;15749;49.606;8.738;2022-09-30T08:04:45;17.50;84.30
28546;DHT22;15749;49.606;8.738;2022-09-30T08:07:16;17.60;84.10
28546;DHT22;15749;49.606;8.738;2022-09-30T08:09:46;17.70;83.70
28546;DHT22;15749;49.606;8.738;2022-09-30T08:12:15;17.80;83.50
28546;DHT22;15749;49.606;8.738;2022-09-30T08:14:46;17.80;84.30
28546;DHT22;15749;49.606;8.738;2022-09-30T08:17:15;18.00;83.60
28546;DHT22;15749;49.606;8.738;2022-09-30T08:19:44;18.00;83.50
28546;DHT22;15749;49.606;8.738;2022-09-30T08:22:13;18.10;83.50
28546;DHT22;15749;49.606;8.738;2022-09-30T08:24:43;18.20;83.30
28546;DHT22;15749;49.606;8.738;2022-09-30T08:27:12;18.30;83.50
28546;DHT22;15749;49.606;8.738;2022-09-30T08:29:41;18.50;83.30
28546;DHT22;15749;49.606;8.738;2022-09-30T08:32:23;18.50;83.30
28546;DHT22;15749;49.606;8.738;2022-09-30T08:34:52;18.60;83.10
28546;DHT22;15749;49.606;8.738;2022-09-30T08:37:22;18.70;82.80
28546;DHT22;15749;49.606;8.738;2022-09-30T08:39:51;18.80;82.80
28546;DHT22;15749;49.606;8.738;2022-09-30T08:42:32;18.90;82.70
28546;DHT22;15749;49.606;8.738;2022-09-30T08:45:23;19.00;81.60
28546;DHT22;15749;49.606;8.738;2022-09-30T08:48:06;19.10;82.40
28546;DHT22;15749;49.606;8.738;2022-09-30T08:50:55;19.20;81.50
28546;DHT22;15749;49.606;8.738;2022-09-30T08:53:33;19.30;81.40
28546;DHT22;15749;49.606;8.738;2022-09-30T08:56:05;19.40;81.50
28546;DHT22;15749;49.606;8.738;2022-09-30T08:58:37;19.50;81.50
28546;DHT22;15749;49.606;8.738;2022-09-30T09:01:15;19.60;81.30
28546;DHT22;15749;49.606;8.738;2022-09-30T09:03:48;19.60;81.10
28546;DHT22;15749;49.606;8.738;2022-09-30T09:06:23;19.80;81.10
28546;DHT22;15749;49.606;8.738;2022-09-30T09:09:12;19.90;80.30
28546;DHT22;15749;49.606;8.738;2022-09-30T09:12:00;19.90;79.00
28546;DHT22;15749;49.606;8.738;2022-09-30T09:14:49;20.10;79.40
28546;DHT22;15749;49.606;8.738;2022-09-30T09:17:31;20.20;80.40
28546;DHT22;15749;49.606;8.738;2022-09-30T09:20:13;20.30;79.60
28546;DHT22;15749;49.606;8.738;2022-09-30T09:22:44;20.40;80.00
28546;DHT22;15749;49.606;8.738;2022-09-30T09:25:16;20.50;80.10
28546;DHT22;15749;49.606;8.738;2022-09-30T09:27:51;20.50;79.40
28546;DHT22;15749;49.606;8.738;2022-09-30T09:30:24;20.60;79.30
28546;DHT22;15749;49.606;8.738;2022-09-30T09:32:57;20.70;79.10
28546;DHT22;15749;49.606;8.738;2022-09-30T09:35:35;20.80;78.70
28546;DHT22;15749;49.606;8.738;2022-09-30T09:38:15;20.90;78.50
28546;DHT22;15749;49.606;8.738;2022-09-30T09:41:11;21.00;78.20
28546;DHT22;15749;49.606;8.738;2022-09-30T09:43:52;21.10;78.30
28546;DHT22;15749;49.606;8.738;2022-09-30T09:46:29;21.20;78.90
28546;DHT22;15749;49.606;8.738;2022-09-30T09:49:29;21.30;77.70
28546;DHT22;15749;49.606;8.738;2022-09-30T09:52:24;21.30;78.30
28546;DHT22;15749;49.606;8.738;2022-09-30T09:55:11;21.40;76.70
28546;DHT22;15749;49.606;8.738;2022-09-30T09:57:41;21.50;78.10
28546;DHT22;15749;49.606;8.738;2022-09-30T10:00:11;21.60;77.60
28546;DHT22;15749;49.606;8.738;2022-09-30T10:03:26;21.70;77.70
28546;DHT22;15749;49.606;8.738;2022-09-30T10:06:00;21.80;77.80
28546;DHT22;15749;49.606;8.738;2022-09-30T10:08:33;21.90;77.20
28546;DHT22;15749;49.606;8.738;2022-09-30T10:11:06;22.00;76.80
28546;DHT22;15749;49.606;8.738;2022-09-30T10:13:45;22.10;76.70
28546;DHT22;15749;49.606;8.738;2022-09-30T10:16:27;22.20;76.00
28546;DHT22;15749;49.606;8.738;2022-09-30T10:18:59;22.20;74.50
28546;DHT22;15749;49.606;8.738;2022-09-30T10:21:33;22.30;75.00
28546;DHT22;15749;49.606;8.738;2022-09-30T10:24:19;22.30;75.00
28546;DHT22;15749;49.606;8.738;2022-09-30T10:26:55;22.40;74.40
28546;DHT22;15749;49.606;8.738;2022-09-30T10:29:27;22.40;75.40
28546;DHT22;15749;49.606;8.738;2022-09-30T10:31:59;22.50;74.40
28546;DHT22;15749;49.606;8.738;2022-09-30T10:34:31;22.50;74.50
28546;DHT22;15749;49.606;8.738;2022-09-30T10:37:07;22.60;74.70
28546;DHT22;15749;49.606;8.738;2022-09-30T10:39:41;22.60;74.30
28546;DHT22;15749;49.606;8.738;2022-09-30T10:42:17;22.70;74.10
28546;DHT22;15749;49.606;8.738;2022-09-30T10:44:55;22.80;73.00
28546;DHT22;15749;49.606;8.738;2022-09-30T10:47:26;22.80;74.20
28546;DHT22;15749;49.606;8.738;2022-09-30T10:50:04;22.90;74.10
28546;DHT22;15749;49.606;8.738;2022-09-30T10:52:38;22.90;73.90
28546;DHT22;15749;49.606;8.738;2022-09-30T10:55:26;23.00;73.40
28546;DHT22;15749;49.606;8.738;2022-09-30T10:58:02;23.10;72.90
28546;DHT22;15749;49.606;8.738;2022-09-30T11:00:53;23.10;73.30
28546;DHT22;15749;49.606;8.738;2022-09-30T11:03:33;23.20;73.10
28546;DHT22;15749;49.606;8.738;2022-09-30T11:06:05;23.20;72.40
28546;DHT22;15749;49.606;8.738;2022-09-30T11:08:40;23.20;72.10
28546;DHT22;15749;49.606;8.738;2022-09-30T11:11:18;23.20;71.60
28546;DHT22;15749;49.606;8.738;2022-09-30T11:13:53;23.20;70.90
28546;DHT22;15749;49.606;8.738;2022-09-30T11:16:28;23.20;70.90
28546;DHT22;15749;49.606;8.738;2022-09-30T11:19:08;23.20;71.40
28546;DHT22;15749;49.606;8.738;2022-09-30T11:21:41;23.20;71.90
28546;DHT22;15749;49.606;8.738;2022-09-30T11:24:22;23.20;71.90
28546;DHT22;15749;49.606;8.738;2022-09-30T11:27:03;23.20;70.70
28546;DHT22;15749;49.606;8.738;2022-09-30T11:29:46;23.20;70.70
28546;DHT22;15749;49.606;8.738;2022-09-30T11:32:32;23.20;71.10
28546;DHT22;15749;49.606;8.738;2022-09-30T11:38:13;23.20;70.30
28546;DHT22;15749;49.606;8.738;2022-09-30T11:40:57;23.20;70.80
28546;DHT22;15749;49.606;8.738;2022-09-30T11:43:38;23.20;70.20
28546;DHT22;15749;49.606;8.738;2022-09-30T11:46:21;23.20;70.50
28546;DHT22;15749;49.606;8.738;2022-09-30T11:49:28;23.20;69.70
28546;DHT22;15749;49.606;8.738;2022-09-30T11:52:13;23.10;70.10
28546;DHT22;15749;49.606;8.738;2022-09-30T11:57:56;23.20;70.60
28546;DHT22;15749;49.606;8.738;2022-09-30T12:00:53;23.20;70.10
28546;DHT22;15749;49.606;8.738;2022-09-30T12:03:29;23.20;70.40
28546;DHT22;15749;49.606;8.738;2022-09-30T12:06:07;23.30;70.90
28546;DHT22;15749;49.606;8.738;2022-09-30T12:08:43;23.30;70.20
28546;DHT22;15749;49.606;8.738;2022-09-30T12:11:19;23.40;70.00
28546;DHT22;15749;49.606;8.738;2022-09-30T12:13:52;23.40;69.60
28546;DHT22;15749;49.606;8.738;2022-09-30T12:16:27;23.40;69.60
28546;DHT22;15749;49.606;8.738;2022-09-30T12:19:03;23.40;69.30
28546;DHT22;15749;49.606;8.738;2022-09-30T12:21:48;23.40;69.00
28546;DHT22;15749;49.606;8.738;2022-09-30T12:24:24;23.40;68.80
28546;DHT22;15749;49.606;8.738;2022-09-30T12:26:57;23.40;68.90
28546;DHT22;15749;49.606;8.738;2022-09-30T12:29:33;23.40;69.40
28546;DHT22;15749;49.606;8.738;2022-09-30T12:35:46;23.30;66.60
28546;DHT22;15749;49.606;8.738;2022-09-30T12:38:36;23.20;66.50
28546;DHT22;15749;49.606;8.738;2022-09-30T12:41:28;23.20;67.40
28546;DHT22;15749;49.606;8.738;2022-09-30T12:44:24;23.20;67.40
28546;DHT22;15749;49.606;8.738;2022-09-30T12:47:23;23.10;67.30
28546;DHT22;15749;49.606;8.738;2022-09-30T12:50:02;23.10;67.00
28546;DHT22;15749;49.606;8.738;2022-09-30T12:52:35;23.00;67.00
28546;DHT22;15749;49.606;8.738;2022-09-30T12:55:07;23.00;67.60
28546;DHT22;15749;49.606;8.738;2022-09-30T12:57:47;22.90;67.20
28546;DHT22;15749;49.606;8.738;2022-09-30T13:00:19;22.80;67.50
28546;DHT22;15749;49.606;8.738;2022-09-30T13:02:56;22.80;66.80
28546;DHT22;15749;49.606;8.738;2022-09-30T13:05:51;22.70;67.60
28546;DHT22;15749;49.606;8.738;2022-09-30T13:08:41;22.70;67.40
28546;DHT22;15749;49.606;8.738;2022-09-30T13:11:33;22.70;67.50
28546;DHT22;15749;49.606;8.738;2022-09-30T13:14:30;22.60;67.50
28546;DHT22;15749;49.606;8.738;2022-09-30T13:19:57;22.60;67.60
28546;DHT22;15749;49.606;8.738;2022-09-30T13:22:54;22.50;67.40
28546;DHT22;15749;49.606;8.738;2022-09-30T13:25:26;22.50;67.50
28546;DHT22;15749;49.606;8.738;2022-09-30T13:28:29;22.40;68.00
28546;DHT22;15749;49.606;8.738;2022-09-30T13:31:13;22.40;68.00
28546;DHT22;15749;49.606;8.738;2022-09-30T13:34:02;22.30;67.50
28546;DHT22;15749;49.606;8.738;2022-09-30T13:36:43;22.30;67.20
28546;DHT22;15749;49.606;8.738;2022-09-30T13:39:27;22.30;68.10
28546;DHT22;15749;49.606;8.738;2022-09-30T13:42:06;22.20;68.30
28546;DHT22;15749;49.606;8.738;2022-09-30T13:44:55;22.20;68.10
28546;DHT22;15749;49.606;8.738;2022-09-30T13:47:31;22.10;67.90
28546;DHT22;15749;49.606;8.738;2022-09-30T13:50:11;22.10;68.80
28546;DHT22;15749;49.606;8.738;2022-09-30T13:52:46;22.10;68.60
28546;DHT22;15749;49.606;8.738;2022-09-30T13:55:21;22.10;68.50
28546;DHT22;15749;49.606;8.738;2022-09-30T13:58:02;22.10;67.80
28546;DHT22;15749;49.606;8.738;2022-09-30T14:00:47;22.00;66.90
28546;DHT22;15749;49.606;8.738;2022-09-30T14:03:37;22.00;66.20
28546;DHT22;15749;49.606;8.738;2022-09-30T14:06:16;21.90;66.80
28546;DHT22;15749;49.606;8.738;2022-09-30T14:12:22;21.90;66.30
28546;DHT22;15749;49.606;8.738;2022-09-30T14:15:23;21.90;67.10
28546;DHT22;15749;49.606;8.738;2022-09-30T14:18:23;21.80;66.30
28546;DHT22;15749;49.606;8.738;2022-09-30T14:21:27;21.80;66.70
28546;DHT22;15749;49.606;8.738;2022-09-30T14:24:08;21.80;66.30
28546;DHT22;15749;49.606;8.738;2022-09-30T14:29:49;21.70;67.10
28546;DHT22;15749;49.606;8.738;2022-09-30T14:32:27;21.70;67.40
28546;DHT22;15749;49.606;8.738;2022-09-30T14:35:04;21.60;67.50
28546;DHT22;15749;49.606;8.738;2022-09-30T14:37:37;21.60;68.10
28546;DHT22;15749;49.606;8.738;2022-09-30T14:40:15;21.60;68.10
28546;DHT22;15749;49.606;8.738;2022-09-30T14:42:47;21.60;67.90
28546;DHT22;15749;49.606;8.738;2022-09-30T14:45:20;21.60;68.20
28546;DHT22;15749;49.606;8.738;2022-09-30T14:47:56;21.60;68.20
28546;DHT22;15749;49.606;8.738;2022-09-30T14:50:28;21.60;68.30
28546;DHT22;15749;49.606;8.738;2022-09-30T14:52:58;21.60;68.70
28546;DHT22;15749;49.606;8.738;2022-09-30T14:55:33;21.60;68.60
28546;DHT22;15749;49.606;8.738;2022-09-30T14:58:21;21.50;68.70
28546;DHT22;15749;49.606;8.738;2022-09-30T15:01:04;21.60;68.90
28546;DHT22;15749;49.606;8.738;2022-09-30T15:03:38;21.60;68.80
28546;DHT22;15749;49.606;8.738;2022-09-30T15:06:16;21.50;68.60
28546;DHT22;15749;49.606;8.738;2022-09-30T15:08:47;21.50;68.30
28546;DHT22;15749;49.606;8.738;2022-09-30T15:11:20;21.50;68.70
28546;DHT22;15749;49.606;8.738;2022-09-30T15:13:57;21.50;68.60
28546;DHT22;15749;49.606;8.738;2022-09-30T15:16:29;21.40;68.80
28546;DHT22;15749;49.606;8.738;2022-09-30T15:18:59;21.40;69.10
28546;DHT22;15749;49.606;8.738;2022-09-30T15:21:30;21.40;69.20
28546;DHT22;15749;49.606;8.738;2022-09-30T15:24:00;21.40;69.40
28546;DHT22;15749;49.606;8.738;2022-09-30T15:26:31;21.40;69.00
28546;DHT22;15749;49.606;8.738;2022-09-30T15:29:02;21.40;69.50
28546;DHT22;15749;49.606;8.738;2022-09-30T15:31:34;21.40;69.80
28546;DHT22;15749;49.606;8.738;2022-09-30T15:34:14;21.30;69.40
28546;DHT22;15749;49.606;8.738;2022-09-30T15:36:56;21.30;69.20
28546;DHT22;15749;49.606;8.738;2022-09-30T15:39:32;21.30;68.40
28546;DHT22;15749;49.606;8.738;2022-09-30T15:42:34;21.30;68.50
28546;DHT22;15749;49.606;8.738;2022-09-30T15:45:26;21.30;68.20
28546;DHT22;15749;49.606;8.738;2022-09-30T15:48:04;21.20;69.00
28546;DHT22;15749;49.606;8.738;2022-09-30T15:50:36;21.20;69.20
28546;DHT22;15749;49.606;8.738;2022-09-30T15:53:14;21.20;69.50
28546;DHT22;15749;49.606;8.738;2022-09-30T15:55:52;21.20;69.30
28546;DHT22;15749;49.606;8.738;2022-09-30T15:58:35;21.10;69.40
28546;DHT22;15749;49.606;8.738;2022-09-30T16:01:12;21.10;68.50
28546;DHT22;15749;49.606;8.738;2022-09-30T16:03:50;21.10;68.60
28546;DHT22;15749;49.606;8.738;2022-09-30T16:06:25;21.00;68.60
28546;DHT22;15749;49.606;8.738;2022-09-30T16:09:02;21.00;68.90
28546;DHT22;15749;49.606;8.738;2022-09-30T16:11:36;21.00;68.30
28546;DHT22;15749;49.606;8.738;2022-09-30T16:14:17;21.00;68.40
28546;DHT22;15749;49.606;8.738;2022-09-30T16:16:49;21.00;68.60
28546;DHT22;15749;49.606;8.738;2022-09-30T16:19:24;21.00;68.20
28546;DHT22;15749;49.606;8.738;2022-09-30T16:21:54;21.00;68.00
28546;DHT22;15749;49.606;8.738;2022-09-30T16:24:46;20.90;68.40
28546;DHT22;15749;49.606;8.738;2022-09-30T16:27:22;21.00;69.30
28546;DHT22;15749;49.606;8.738;2022-09-30T16:29:58;20.90;69.10
28546;DHT22;15749;49.606;8.738;2022-09-30T16:32:31;20.90;68.50
28546;DHT22;15749;49.606;8.738;2022-09-30T16:35:05;20.90;69.40
28546;DHT22;15749;49.606;8.738;2022-09-30T16:37:35;20.90;69.60
28546;DHT22;15749;49.606;8.738;2022-09-30T16:40:20;20.90;68.40
28546;DHT22;15749;49.606;8.738;2022-09-30T16:42:52;20.80;69.80
28546;DHT22;15749;49.606;8.738;2022-09-30T16:45:24;20.80;68.10
28546;DHT22;15749;49.606;8.738;2022-09-30T16:47:57;20.70;69.00
28546;DHT22;15749;49.606;8.738;2022-09-30T16:50:32;20.80;68.80
28546;DHT22;15749;49.606;8.738;2022-09-30T16:53:05;20.70;69.60
28546;DHT22;15749;49.606;8.738;2022-09-30T16:55:37;20.80;68.30
28546;DHT22;15749;49.606;8.738;2022-09-30T16:58:09;20.70;69.00
28546;DHT22;15749;49.606;8.738;2022-09-30T17:00:42;20.60;69.00
28546;DHT22;15749;49.606;8.738;2022-09-30T17:03:14;20.60;68.90
28546;DHT22;15749;49.606;8.738;2022-09-30T17:05:46;20.60;69.40
28546;DHT22;15749;49.606;8.738;2022-09-30T17:08:21;20.60;69.40
28546;DHT22;15749;49.606;8.738;2022-09-30T17:10:51;20.50;69.60
28546;DHT22;15749;49.606;8.738;2022-09-30T17:13:21;20.50;68.80
28546;DHT22;15749;49.606;8.738;2022-09-30T17:15:52;20.50;68.80
28546;DHT22;15749;49.606;8.738;2022-09-30T17:18:23;20.50;68.80
28546;DHT22;15749;49.606;8.738;2022-09-30T17:20:52;20.40;68.30
28546;DHT22;15749;49.606;8.738;2022-09-30T17:23:24;20.40;69.60
28546;DHT22;15749;49.606;8.738;2022-09-30T17:25:53;20.30;70.10
28546;DHT22;15749;49.606;8.738;2022-09-30T17:28:23;20.30;70.40
28546;DHT22;15749;49.606;8.738;2022-09-30T17:30:53;20.30;70.50
28546;DHT22;15749;49.606;8.738;2022-09-30T17:33:22;20.30;70.20
28546;DHT22;15749;49.606;8.738;2022-09-30T17:35:58;20.20;70.00
28546;DHT22;15749;49.606;8.738;2022-09-30T17:38:29;20.20;70.20
28546;DHT22;15749;49.606;8.738;2022-09-30T17:40:58;20.10;70.10